Time;durP1;ratioP1;P1;durP2;ratioP2;P2;SDS_P1;SDS_P2;PMS_P1;PMS_P2;Temp;Humidity;BMP_temperature;BMP_pressure;BME280_temperature;BME280_humidity;BME280_pressure;Samples;Min_cycle;Max_cycle;Signal;HPM_P1;HPM_P2
2022/05/18 00:01:49;;;;;;;4.88;1.88;;;;;;;13.66;53.67;101646.59;5055471;28;20100;-54
2022/05/18 00:04:16;;;;;;;5.40;2.55;;;;;;;13.63;53.88;101635.34;5054346;28;20434;-52
2022/05/18 00:06:43;;;;;;;8.63;2.05;;;;;;;13.61;53.64;101646.00;5043697;28;20057;-55
2022/05/18 00:09:11;;;;;;;5.57;2.25;;;;;;;13.56;53.79;101649.84;5044210;28;20053;-55
2022/05/18 00:11:38;;;;;;;8.98;2.53;;;;;;;13.52;54.02;101649.16;5048030;28;20063;-56
2022/05/18 00:14:08;;;;;;;9.45;2.05;;;;;;;13.49;53.89;101646.69;5047486;28;20139;-55
2022/05/18 00:16:36;;;;;;;4.40;2.28;;;;;;;13.45;54.08;101653.06;5050309;28;20567;-55
2022/05/18 00:19:04;;;;;;;6.38;2.30;;;;;;;13.42;53.91;101664.69;5047158;28;20124;-55
2022/05/18 00:21:32;;;;;;;4.30;2.35;;;;;;;13.41;54.15;101667.41;5049465;28;20108;-53
2022/05/18 00:23:59;;;;;;;5.22;2.40;;;;;;;13.37;54.07;101663.22;5035476;28;20057;-54
2022/05/18 00:26:27;;;;;;;6.88;2.42;;;;;;;13.34;53.95;101666.88;5046358;28;20980;-54
2022/05/18 00:28:54;;;;;;;6.00;2.25;;;;;;;13.32;53.81;101671.38;5042300;28;20307;-54
2022/05/18 00:31:22;;;;;;;11.25;2.45;;;;;;;13.30;53.63;101673.28;5048469;28;20109;-51
2022/05/18 00:33:49;;;;;;;8.30;2.47;;;;;;;13.27;53.96;101676.06;5042841;28;20514;-54
2022/05/18 00:36:16;;;;;;;6.35;2.65;;;;;;;13.24;53.85;101670.09;5040771;28;20385;-51
2022/05/18 00:38:44;;;;;;;6.55;2.60;;;;;;;13.22;53.74;101687.81;5039541;28;20055;-54
2022/05/18 00:41:11;;;;;;;9.73;2.42;;;;;;;13.17;53.98;101686.25;5037321;28;20404;-55
2022/05/18 00:43:41;;;;;;;10.77;2.35;;;;;;;13.14;53.81;101696.13;5043080;28;20061;-53
2022/05/18 00:46:13;;;;;;;6.63;2.33;;;;;;;13.09;53.75;101693.72;5040649;28;20503;-50
2022/05/18 00:48:41;;;;;;;4.05;2.28;;;;;;;13.07;53.45;101698.25;5034683;28;20045;-55
2022/05/18 00:51:15;;;;;;;8.68;2.33;;;;;;;13.05;53.59;101707.19;5043645;28;20059;-52
2022/05/18 00:53:49;;;;;;;9.13;2.30;;;;;;;13.02;53.39;101708.22;5025775;28;20049;-52
2022/05/18 00:56:20;;;;;;;7.90;2.50;;;;;;;13.00;53.23;101715.34;5043639;28;20048;-51
2022/05/18 00:58:53;;;;;;;14.88;2.38;;;;;;;12.97;52.75;101714.66;5042448;28;20052;-52
2022/05/18 01:01:21;;;;;;;7.65;2.10;;;;;;;12.95;53.00;101721.81;5044471;28;20057;-53
2022/05/18 01:03:52;;;;;;;12.73;2.92;;;;;;;12.92;52.40;101723.72;5030117;28;20049;-56
2022/05/18 01:06:27;;;;;;;8.05;2.47;;;;;;;12.89;52.31;101736.22;5023592;28;20045;-54
2022/05/18 01:08:59;;;;;;;5.43;1.70;;;;;;;12.83;52.33;101739.16;5020972;28;20057;-55
2022/05/18 01:11:27;;;;;;;4.13;1.73;;;;;;;12.82;51.67;101748.00;5032909;28;20056;-52
2022/05/18 01:13:54;;;;;;;4.85;2.35;;;;;;;12.80;51.92;101752.53;5036832;28;20049;-54
2022/05/18 01:16:22;;;;;;;10.35;1.90;;;;;;;12.75;51.59;101736.91;5028536;28;20051;-53
2022/05/18 01:18:50;;;;;;;7.50;2.03;;;;;;;12.72;51.77;101738.84;5043314;28;20067;-53
2022/05/18 01:21:17;;;;;;;11.32;2.45;;;;;;;12.70;51.21;101746.88;5028462;28;20111;-53
2022/05/18 01:24:10;;;;;;;9.73;1.95;;;;;;;12.66;51.01;101754.06;5038562;28;20513;-54
2022/05/18 01:26:40;;;;;;;10.27;2.17;;;;;;;12.61;50.75;101755.25;5018597;28;20053;-51
2022/05/18 01:29:08;;;;;;;3.45;1.65;;;;;;;12.57;50.54;101754.53;5024801;28;20059;-51
2022/05/18 01:31:58;;;;;;;4.03;1.67;;;;;;;12.54;50.62;101759.97;5038006;28;20055;-52
2022/05/18 01:34:32;;;;;;;5.00;1.67;;;;;;;12.52;50.12;101759.19;5035423;28;20129;-55
2022/05/18 01:36:59;;;;;;;3.50;1.75;;;;;;;12.50;49.74;101757.53;5026617;28;20060;-53
2022/05/18 01:39:50;;;;;;;3.05;1.73;;;;;;;12.47;49.69;101762.97;5019130;28;20416;-54
2022/05/18 01:42:33;;;;;;;8.88;1.70;;;;;;;12.44;49.25;101764.00;5017590;28;20053;-54
2022/05/18 01:45:01;;;;;;;13.02;1.90;;;;;;;12.47;48.64;101773.53;5020749;28;20045;-53
2022/05/18 01:47:33;;;;;;;8.25;1.83;;;;;;;12.44;48.67;101771.91;5022296;28;20057;-53
2022/05/18 01:50:03;;;;;;;8.35;2.00;;;;;;;12.41;48.17;101774.69;5040751;28;20059;-55
2022/05/18 01:52:32;;;;;;;7.80;1.98;;;;;;;12.38;48.17;101780.09;5037041;28;20049;-53
2022/05/18 01:55:00;;;;;;;8.90;1.60;;;;;;;12.38;48.18;101780.09;5042255;28;20053;-54
2022/05/18 01:57:27;;;;;;;6.53;1.67;;;;;;;12.35;47.71;101780.28;5043885;28;20053;-52
2022/05/18 01:59:54;;;;;;;2.65;1.42;;;;;;;12.34;47.30;101775.94;5041759;28;20053;-52
2022/05/18 02:02:22;;;;;;;5.28;1.60;;;;;;;12.31;47.21;101779.56;5031500;28;20052;-55
2022/05/18 02:04:50;;;;;;;12.05;2.38;;;;;;;12.27;46.85;101777.13;5041321;28;20049;-52
2022/05/18 02:07:17;;;;;;;4.43;1.77;;;;;;;12.27;46.42;101777.13;5040562;28;20049;-54
2022/05/18 02:09:45;;;;;;;8.73;1.70;;;;;;;12.23;46.30;101784.34;5038139;28;20061;-54
2022/05/18 02:12:13;;;;;;;4.82;1.73;;;;;;;12.21;45.92;101780.09;5041698;28;20504;-54
2022/05/18 02:14:40;;;;;;;4.45;1.20;;;;;;;12.16;45.65;101783.78;5043863;28;20057;-53
2022/05/18 02:17:07;;;;;;;4.80;1.50;;;;;;;12.13;45.81;101789.22;5039813;28;20057;-54
2022/05/18 02:19:35;;;;;;;6.63;1.80;;;;;;;12.11;45.30;101793.72;5040679;28;20592;-54
2022/05/18 02:22:02;;;;;;;3.72;1.48;;;;;;;12.09;45.67;101784.16;5046925;28;20045;-54
2022/05/18 02:24:30;;;;;;;5.05;1.60;;;;;;;12.06;45.06;101779.00;5042094;28;20056;-54
2022/05/18 02:26:57;;;;;;;2.42;1.30;;;;;;;12.03;44.29;101781.81;5038842;28;20057;-53
2022/05/18 02:29:24;;;;;;;7.03;1.30;;;;;;;12.00;44.85;101784.56;5041947;28;20063;-56
2022/05/18 02:31:52;;;;;;;3.80;1.83;;;;;;;11.97;45.14;101782.91;5043548;28;20057;-56
2022/05/18 02:34:20;;;;;;;3.72;1.40;;;;;;;11.91;45.14;101786.69;5040888;28;20044;-56
2022/05/18 02:36:48;;;;;;;4.43;1.33;;;;;;;11.89;45.02;101787.72;5035383;28;20547;-56
2022/05/18 02:39:16;;;;;;;3.47;1.70;;;;;;;11.87;45.38;101794.84;5043914;28;20412;-52
2022/05/18 02:41:44;;;;;;;2.17;1.10;;;;;;;11.85;44.87;101797.56;5041834;28;20047;-52
2022/05/18 02:44:11;;;;;;;7.00;1.85;;;;;;;11.83;44.57;101793.25;5040728;28;20049;-53
2022/05/18 02:46:39;;;;;;;7.88;1.95;;;;;;;11.79;44.85;101797.78;5041471;28;20216;-53
2022/05/18 02:49:06;;;;;;;8.63;1.63;;;;;;;11.76;44.46;101797.09;5040974;28;21651;-53
2022/05/18 02:51:34;;;;;;;2.30;1.20;;;;;;;11.73;44.31;101802.47;5045015;28;20060;-54
2022/05/18 02:56:05;;;;;;;8.70;1.42;;;;;;;11.69;44.33;101801.75;5035061;28;20770;-55
2022/05/18 02:56:48;;;;;;;7.93;1.45;;;;;;;11.65;44.41;101806.31;5039584;28;20055;-55
2022/05/18 02:59:16;;;;;;;3.72;1.20;;;;;;;11.59;44.64;101798.69;5043940;28;20048;-55
2022/05/18 03:01:43;;;;;;;4.25;1.20;;;;;;;11.58;44.84;101801.41;5038964;28;20037;-54
2022/05/18 03:04:11;;;;;;;7.22;1.17;;;;;;;11.56;44.51;101796.16;5039293;28;20119;-54
2022/05/18 03:06:39;;;;;;;4.63;1.40;;;;;;;11.53;44.66;101801.59;5043841;28;20051;-54
2022/05/18 03:09:07;;;;;;;6.57;1.40;;;;;;;11.50;44.74;101808.78;5041622;28;20063;-50
2022/05/18 03:11:36;;;;;;;4.22;1.50;;;;;;;11.46;44.91;101805.41;5045371;28;20041;-50
2022/05/18 03:14:04;;;;;;;2.60;1.13;;;;;;;11.43;45.14;101810.81;5018592;28;20049;-54
2022/05/18 03:16:32;;;;;;;2.83;1.20;;;;;;;11.41;45.17;101813.53;5039648;28;20405;-55
2022/05/18 03:18:59;;;;;;;18.13;2.65;;;;;;;11.41;45.01;101804.78;5022872;28;20057;-53
2022/05/18 03:24:13;;;;;;;4.40;1.42;;;;;;;11.35;45.25;101813.81;5043696;28;20104;-54
2022/05/18 03:26:40;;;;;;;4.38;2.08;;;;;;;11.32;45.14;101811.28;5039545;28;20051;-52
2022/05/18 03:29:07;;;;;;;5.72;1.10;;;;;;;11.33;44.89;101815.63;5039782;28;20243;-55
2022/05/18 03:31:34;;;;;;;3.20;1.40;;;;;;;11.33;45.37;101814.78;5044822;28;20052;-53
2022/05/18 03:34:02;;;;;;;5.22;1.40;;;;;;;11.33;44.87;101814.78;5045657;28;20053;-55
2022/05/18 03:36:29;;;;;;;2.38;1.20;;;;;;;11.31;44.36;101816.66;5046601;28;20049;-53
2022/05/18 03:38:57;;;;;;;3.67;1.30;;;;;;;11.30;44.67;101823.69;5039661;28;20049;-50
2022/05/18 03:41:24;;;;;;;6.68;1.88;;;;;;;11.31;44.78;101825.41;5039171;28;20552;-55
2022/05/18 03:43:51;;;;;;;3.08;1.23;;;;;;;11.31;44.31;101827.19;5045673;28;20057;-52
2022/05/18 03:46:19;;;;;;;1.77;1.10;;;;;;;11.31;44.72;101835.94;5041110;28;20061;-56
2022/05/18 03:48:46;;;;;;;2.03;1.10;;;;;;;11.35;44.30;101840.16;5046559;28;20054;-53
2022/05/18 03:51:16;;;;;;;5.10;1.48;;;;;;;11.35;44.13;101840.16;5046909;28;20496;-54
2022/05/18 03:53:43;;;;;;;2.30;1.13;;;;;;;11.36;44.28;101846.31;5043315;28;20045;-55
2022/05/18 03:56:11;;;;;;;2.10;1.02;;;;;;;11.41;43.74;101844.31;5044672;28;20044;-55
2022/05/18 03:58:38;;;;;;;4.88;1.60;;;;;;;11.45;44.00;101850.31;5043794;28;20055;-52
2022/05/18 04:01:09;;;;;;;3.65;1.77;;;;;;;11.46;43.60;101844.97;5038100;28;20041;-53
2022/05/18 04:03:40;;;;;;;3.33;1.25;;;;;;;11.48;43.49;101843.09;5041792;28;20404;-53
2022/05/18 04:06:08;;;;;;;4.00;1.42;;;;;;;11.48;43.55;101845.75;5048698;28;20057;-53
2022/05/18 04:08:35;;;;;;;2.47;1.15;;;;;;;11.54;43.50;101848.13;5043562;28;20048;-57
2022/05/18 04:11:04;;;;;;;3.05;1.60;;;;;;;11.62;43.54;101853.94;5044074;28;20045;-51
2022/05/18 04:13:32;;;;;;;2.15;0.95;;;;;;;11.65;43.21;101850.31;5042299;28;20067;-53
2022/05/18 04:15:59;;;;;;;5.95;1.58;;;;;;;11.65;42.80;101852.94;5031028;28;20594;-56
2022/05/18 04:18:27;;;;;;;4.53;1.35;;;;;;;11.69;42.61;101851.03;5038399;28;20417;-51
2022/05/18 04:20:55;;;;;;;4.55;1.05;;;;;;;11.71;42.52;101854.44;5044799;28;20398;-52
2022/05/18 04:23:25;;;;;;;7.50;1.20;;;;;;;11.74;42.77;101851.69;5048306;28;20047;-54
2022/05/18 04:25:53;;;;;;;2.13;1.20;;;;;;;11.77;42.59;101854.19;5039770;28;20772;-51
2022/05/18 04:28:20;;;;;;;3.10;1.25;;;;;;;11.79;42.59;101849.69;5038129;28;20052;-52
2022/05/18 04:30:48;;;;;;;2.55;1.17;;;;;;;11.82;42.21;101858.38;5040884;28;20049;-55
2022/05/18 04:33:18;;;;;;;3.22;1.48;;;;;;;11.85;42.53;101852.09;5045077;28;20057;-54
2022/05/18 04:35:48;;;;;;;2.28;1.00;;;;;;;11.88;42.48;101859.88;5038347;28;20489;-54
2022/05/18 04:38:18;;;;;;;3.00;1.70;;;;;;;11.88;42.41;101854.59;5027791;28;20087;-54
2022/05/18 04:40:51;;;;;;;4.38;1.33;;;;;;;11.92;42.28;101856.16;5042442;28;20807;-52
2022/05/18 04:43:20;;;;;;;4.28;1.52;;;;;;;11.94;41.80;101861.41;5035659;28;20065;-52
2022/05/18 04:45:47;;;;;;;12.90;1.70;;;;;;;11.95;42.03;101852.53;5031602;28;20049;-55
2022/05/18 04:48:17;;;;;;;4.03;1.30;;;;;;;12.02;42.11;101857.50;5041976;28;20559;-56
2022/05/18 04:50:45;;;;;;;2.97;1.33;;;;;;;12.13;41.85;101864.91;5040410;28;20056;-54
2022/05/18 04:53:12;;;;;;;2.35;1.10;;;;;;;12.24;42.20;101867.91;5042080;28;20055;-55
2022/05/18 04:55:40;;;;;;;1.60;1.08;;;;;;;12.31;41.75;101866.69;5041452;28;20063;-54
2022/05/18 04:58:07;;;;;;;1.67;1.08;;;;;;;12.32;41.61;101864.91;5045537;28;20045;-51
2022/05/18 05:00:34;;;;;;;3.70;1.30;;;;;;;12.37;41.43;101868.19;5042895;28;20059;-52
2022/05/18 05:03:02;;;;;;;4.50;1.42;;;;;;;12.42;41.46;101864.41;5041924;28;20051;-52
2022/05/18 05:05:29;;;;;;;5.00;1.25;;;;;;;12.48;41.20;101873.00;5039278;28;20047;-54
2022/05/18 05:07:57;;;;;;;4.53;1.48;;;;;;;12.51;41.49;101871.03;5040244;28;20061;-54
2022/05/18 05:10:24;;;;;;;4.10;1.20;;;;;;;12.55;41.40;101869.13;5043357;28;20049;-56
2022/05/18 05:12:51;;;;;;;4.45;0.98;;;;;;;12.55;41.06;101874.41;5036994;28;20045;-53
2022/05/18 05:15:19;;;;;;;2.42;1.10;;;;;;;12.62;41.17;101874.03;5044069;28;20059;-54
2022/05/18 05:17:47;;;;;;;2.35;1.20;;;;;;;12.71;41.03;101880.69;5033607;28;20588;-52
2022/05/18 05:20:14;;;;;;;4.88;1.40;;;;;;;12.74;41.29;101882.28;5039009;28;20708;-53
2022/05/18 05:22:42;;;;;;;1.65;1.05;;;;;;;12.80;40.73;101876.75;5036451;28;20161;-49
2022/05/18 05:25:09;;;;;;;5.40;2.00;;;;;;;12.87;41.07;101886.91;5027641;28;20041;-51
2022/05/18 05:27:37;;;;;;;1.75;1.02;;;;;;;12.94;41.32;101876.91;5029562;28;20051;-58
2022/05/18 05:30:05;;;;;;;5.38;1.77;;;;;;;13.00;41.15;101886.31;5038884;28;20057;-53
2022/05/18 05:32:33;;;;;;;3.28;1.25;;;;;;;13.09;41.22;101889.38;5044590;28;20041;-49
2022/05/18 05:35:04;;;;;;;3.90;1.75;;;;;;;13.08;40.43;101898.25;5038727;28;20429;-55
2022/05/18 05:37:31;;;;;;;6.05;1.42;;;;;;;13.13;40.58;101895.38;5027977;28;20057;-54
2022/05/18 05:39:59;;;;;;;3.00;1.40;;;;;;;13.20;40.74;101898.59;5039499;28;20052;-58
2022/05/18 05:42:26;;;;;;;4.10;1.33;;;;;;;13.26;40.20;101899.16;5035652;28;20036;-51
2022/05/18 05:44:53;;;;;;;8.52;1.52;;;;;;;13.29;40.73;101890.22;5040340;28;20041;-51
2022/05/18 05:47:21;;;;;;;3.60;1.55;;;;;;;13.36;41.04;101889.81;5041920;28;20079;-52
2022/05/18 05:49:48;;;;;;;9.60;1.95;;;;;;;13.38;40.14;101887.97;5039151;28;21123;-53
2022/05/18 05:52:15;;;;;;;4.28;1.60;;;;;;;13.43;40.27;101895.66;5038670;28;20195;-49
2022/05/18 05:54:46;;;;;;;3.03;1.95;;;;;;;13.42;40.45;101894.81;5041118;28;20045;-54
2022/05/18 05:57:13;;;;;;;3.08;1.23;;;;;;;13.50;40.77;101899.69;5040966;28;20036;-52
2022/05/18 05:59:40;;;;;;;5.60;1.88;;;;;;;13.52;40.82;101899.63;5038355;28;20144;-49
2022/05/18 06:02:09;;;;;;;6.15;1.30;;;;;;;13.52;40.81;101897.00;5034273;28;20057;-50
2022/05/18 06:04:39;;;;;;;5.18;1.80;;;;;;;13.57;40.66;101895.81;5035329;28;20033;-51
2022/05/18 06:07:07;;;;;;;10.90;1.33;;;;;;;13.63;40.45;101900.78;5056404;22;20061;-52
2022/05/18 06:09:34;;;;;;;7.95;1.25;;;;;;;13.69;40.64;101894.34;5005259;28;20054;-54
2022/05/18 06:12:02;;;;;;;4.20;1.50;;;;;;;13.77;40.37;101897.41;5004991;28;20034;-53
2022/05/18 06:14:29;;;;;;;13.07;1.70;;;;;;;13.88;40.34;101896.88;5005305;28;20062;-56
2022/05/18 06:16:57;;;;;;;6.93;1.83;;;;;;;13.96;40.46;101897.34;5004079;28;20050;-50
2022/05/18 06:19:24;;;;;;;8.50;1.80;;;;;;;13.99;40.30;101899.81;5005859;28;20064;-51
2022/05/18 06:21:51;;;;;;;2.38;1.40;;;;;;;14.12;40.52;101903.50;5007243;28;20046;-52
2022/05/18 06:24:19;;;;;;;6.05;1.83;;;;;;;14.21;40.18;101902.16;5005669;28;20068;-53
2022/05/18 06:26:47;;;;;;;3.47;1.30;;;;;;;14.28;40.50;101908.00;5005967;28;20429;-53
2022/05/18 06:29:14;;;;;;;9.13;1.75;;;;;;;14.29;40.72;101899.13;5001653;28;20536;-53
2022/05/18 06:31:41;;;;;;;7.00;1.88;;;;;;;14.41;40.19;101899.31;5002660;28;20056;-57
2022/05/18 06:34:09;;;;;;;8.48;2.15;;;;;;;14.50;40.21;101911.22;5000869;28;20062;-55
2022/05/18 06:36:36;;;;;;;5.80;1.33;;;;;;;14.49;40.23;101906.00;5003471;28;20718;-57
2022/05/18 06:39:04;;;;;;;4.63;1.90;;;;;;;14.51;40.87;101909.44;5008505;28;20915;-53
2022/05/18 06:41:34;;;;;;;6.63;1.73;;;;;;;14.62;40.70;101899.94;5007203;28;20052;-53
2022/05/18 06:44:04;;;;;;;5.30;1.70;;;;;;;14.73;40.47;101903.81;5009229;28;20050;-55
2022/05/18 06:46:34;;;;;;;3.20;1.52;;;;;;;14.89;40.50;101910.78;5010386;28;20140;-56
2022/05/18 06:49:03;;;;;;;4.28;1.70;;;;;;;15.09;40.43;101909.66;5001428;28;20053;-51
2022/05/18 06:51:35;;;;;;;4.38;2.08;;;;;;;15.24;40.19;101918.53;5006453;28;20425;-55
2022/05/18 06:54:03;;;;;;;7.20;1.75;;;;;;;15.40;39.83;101918.47;5004679;28;20144;-56
2022/05/18 06:56:33;;;;;;;4.57;1.92;;;;;;;15.56;40.05;101924.59;5007399;28;20052;-50
2022/05/18 06:59:02;;;;;;;4.53;2.00;;;;;;;15.65;39.85;101918.78;5000835;28;20049;-49
2022/05/18 07:01:29;;;;;;;7.35;1.95;;;;;;;15.69;39.83;101916.81;4996514;28;20057;-53
2022/05/18 07:03:57;;;;;;;5.63;2.58;;;;;;;15.75;39.99;101923.53;4999968;28;20080;-53
2022/05/18 07:06:33;;;;;;;8.00;2.28;;;;;;;15.91;39.96;101917.22;5000041;28;20502;-55
2022/05/18 07:09:02;;;;;;;7.13;1.90;;;;;;;16.07;39.82;101913.59;5003277;28;20065;-54
2022/05/18 07:11:29;;;;;;;4.38;2.03;;;;;;;16.11;39.89;101915.13;4997092;28;20733;-54
2022/05/18 07:13:58;;;;;;;6.57;1.92;;;;;;;16.24;39.55;101916.09;4998498;28;20052;-58
2022/05/18 07:16:26;;;;;;;4.60;1.58;;;;;;;16.35;39.74;101921.59;5003219;28;20391;-54
2022/05/18 07:18:55;;;;;;;5.47;1.77;;;;;;;16.42;39.31;101919.38;4999069;28;20056;-57
2022/05/18 07:21:23;;;;;;;8.00;1.92;;;;;;;16.57;39.52;101921.09;5002895;28;20046;-54
2022/05/18 07:23:50;;;;;;;4.10;1.63;;;;;;;16.68;39.47;101910.63;5002996;28;20076;-56
2022/05/18 07:26:19;;;;;;;8.65;2.22;;;;;;;16.85;39.48;101917.56;5002761;28;20057;-56
2022/05/18 07:28:46;;;;;;;6.68;2.03;;;;;;;16.93;39.12;101911.72;4996769;28;20042;-58
2022/05/18 07:31:14;;;;;;;5.22;1.90;;;;;;;16.99;39.15;101919.31;4999592;28;20061;-56
2022/05/18 07:34:01;;;;;;;4.10;1.80;;;;;;;17.09;39.34;101915.09;4999603;28;20425;-55
2022/05/18 07:36:29;;;;;;;7.68;2.65;;;;;;;17.23;39.12;101918.66;4999541;28;20046;-55
2022/05/18 07:38:56;;;;;;;6.07;2.30;;;;;;;17.36;38.70;101915.06;4999362;28;20060;-54
2022/05/18 07:41:24;;;;;;;6.50;2.17;;;;;;;17.44;38.88;101914.56;5004971;28;20126;-53
2022/05/18 07:43:51;;;;;;;4.25;1.83;;;;;;;17.57;39.25;101918.09;5002960;28;20052;-55
2022/05/18 07:46:18;;;;;;;6.78;2.08;;;;;;;17.76;38.86;101919.53;4999554;28;20065;-53
2022/05/18 07:48:46;;;;;;;5.30;2.22;;;;;;;17.78;38.69;101923.78;4999919;28;20088;-54
2022/05/18 07:51:14;;;;;;;5.45;2.47;;;;;;;17.67;39.06;101923.66;5001339;28;20050;-56
2022/05/18 07:53:42;;;;;;;3.78;2.03;;;;;;;17.76;38.86;101920.38;4999475;28;20054;-57
2022/05/18 07:56:12;;;;;;;7.93;2.90;;;;;;;17.83;39.20;101921.69;5006588;28;20388;-55
2022/05/18 07:58:40;;;;;;;7.75;2.17;;;;;;;17.91;39.21;101924.63;5006183;28;20075;-55
2022/05/18 08:01:08;;;;;;;6.78;2.55;;;;;;;17.95;39.11;101911.97;5006593;28;20728;-56
2022/05/18 08:03:36;;;;;;;5.45;2.63;;;;;;;18.10;39.50;101915.38;5005056;28;20546;-57
2022/05/18 08:06:03;;;;;;;5.45;2.33;;;;;;;18.17;39.17;101914.84;5005570;28;20057;-52
2022/05/18 08:08:31;;;;;;;5.22;2.38;;;;;;;18.31;39.27;101910.34;5006753;28;20054;-56
2022/05/18 08:16:31;;;;;;;;;;;;;;;18.63;38.63;101911.53;5005957;28;20061;-54
2022/05/18 08:18:59;;;;;;;6.80;2.42;;;;;;;18.81;39.11;101914.72;5004706;28;20853;-56
2022/05/18 08:21:27;;;;;;;4.30;2.35;;;;;;;18.90;38.85;101907.84;5004454;28;20060;-52
2022/05/18 08:23:54;;;;;;;6.30;2.42;;;;;;;19.09;38.66;101910.00;5007021;28;20060;-55
2022/05/18 08:26:24;;;;;;;6.88;2.50;;;;;;;19.20;38.27;101904.75;5007751;28;20436;-53
2022/05/18 08:28:52;;;;;;;9.63;3.08;;;;;;;19.37;38.77;101903.47;5003003;28;20049;-57
2022/05/18 08:31:21;;;;;;;9.38;2.90;;;;;;;19.47;38.67;101907.97;5012846;28;20049;-54
2022/05/18 08:33:48;;;;;;;13.00;2.67;;;;;;;19.58;38.55;101915.16;5007075;28;20409;-52
2022/05/18 08:36:18;;;;;;;6.68;2.60;;;;;;;19.60;38.31;101910.59;5006832;28;20054;-54
2022/05/18 08:38:46;;;;;;;5.25;2.50;;;;;;;19.67;38.22;101911.81;5006686;28;20053;-58
2022/05/18 08:41:19;;;;;;;4.18;2.50;;;;;;;19.77;38.23;101903.09;5008214;28;20058;-56
2022/05/18 08:43:48;;;;;;;4.07;2.35;;;;;;;19.86;37.63;101905.09;5005611;28;20046;-54
2022/05/18 08:46:24;;;;;;;5.80;2.45;;;;;;;19.95;37.73;101901.69;5006691;28;20403;-54
2022/05/18 08:48:53;;;;;;;9.10;2.42;;;;;;;20.01;37.46;101900.34;5002547;28;20050;-60
2022/05/18 08:51:45;;;;;;;7.63;2.67;;;;;;;20.03;37.78;101904.59;5002717;28;20042;-55
2022/05/18 08:54:21;;;;;;;5.65;2.40;;;;;;;20.08;37.44;101897.06;5001987;28;20505;-55
2022/05/18 08:56:50;;;;;;;9.00;2.30;;;;;;;20.09;37.97;101888.09;5011130;28;20081;-51
2022/05/18 08:59:22;;;;;;;3.20;1.83;;;;;;;20.20;37.64;101885.41;4988515;28;20069;-57
2022/05/18 09:01:51;;;;;;;4.97;2.58;;;;;;;20.24;37.79;101889.53;4999306;28;20060;-56
2022/05/18 09:04:30;;;;;;;4.45;2.40;;;;;;;20.35;37.86;101891.34;5002339;28;20050;-52
2022/05/18 09:07:07;;;;;;;6.95;2.80;;;;;;;20.53;38.04;101888.19;4995536;28;20054;-56
2022/05/18 09:10:16;;;;;;;11.60;3.20;;;;;;;20.69;38.01;101892.19;4997394;28;20125;-55
2022/05/18 09:12:47;;;;;;;7.05;2.63;;;;;;;20.88;37.54;101888.84;5002568;28;20526;-57
2022/05/18 09:15:17;;;;;;;5.90;3.40;;;;;;;21.01;37.78;101885.16;5008059;28;20049;-56
2022/05/18 09:17:57;;;;;;;6.15;2.83;;;;;;;21.08;37.58;101887.19;5010326;28;20058;-58
2022/05/18 09:20:43;;;;;;;3.40;2.50;;;;;;;21.16;38.07;101887.41;5001083;28;20058;-59
2022/05/18 09:23:25;;;;;;;5.75;2.80;;;;;;;21.31;37.91;101881.75;5010036;28;20046;-50
2022/05/18 09:26:09;;;;;;;5.70;2.97;;;;;;;21.50;37.90;101881.91;4997215;28;20068;-53
2022/05/18 09:29:11;;;;;;;6.35;2.95;;;;;;;21.56;36.97;101875.16;4999909;28;20537;-52
2022/05/18 09:32:18;;;;;;;10.65;2.95;;;;;;;21.46;37.66;101880.47;4998818;28;20061;-57
2022/05/18 09:35:06;;;;;;;;;;;;;;;21.51;37.71;101882.75;4944038;28;20083;-57
2022/05/18 09:37:37;;;;;;;7.35;3.05;;;;;;;21.47;37.76;101884.81;5000583;28;19926;-56
2022/05/18 09:40:23;;;;;;;7.30;3.00;;;;;;;21.62;37.76;101880.00;4994887;28;20050;-59
2022/05/18 09:43:13;;;;;;;9.48;3.20;;;;;;;21.66;38.32;101878.75;4993996;28;20053;-59
2022/05/18 09:45:44;;;;;;;7.80;3.17;;;;;;;21.86;38.82;101877.88;4985814;28;20088;-56
2022/05/18 09:48:19;;;;;;;6.35;3.28;;;;;;;21.99;38.34;101878.50;4997200;28;20402;-53
2022/05/18 09:50:47;;;;;;;;;;;;;;;22.10;38.81;101876.72;4987187;28;20062;-53
2022/05/18 09:53:15;;;;;;;8.38;3.25;;;;;;;22.21;38.71;101877.50;4987792;28;20400;-53
2022/05/18 09:55:45;;;;;;;4.75;3.30;;;;;;;22.14;38.71;101872.81;5005094;28;20102;-59
2022/05/18 10:08:28;;;;;;;5.40;3.42;;;;;;;22.51;38.40;101856.97;5064671;28;20041;-57
2022/05/18 10:10:58;;;;;;;12.50;4.10;;;;;;;22.58;38.11;101855.44;5060636;28;20262;-59
2022/05/18 10:13:31;;;;;;;10.77;4.00;;;;;;;22.70;38.05;101850.78;5060603;28;20045;-59
2022/05/18 10:16:10;;;;;;;14.07;7.97;;;;;;;22.84;38.46;101852.22;5058768;28;20049;-58
2022/05/18 10:18:43;;;;;;;14.15;7.47;;;;;;;23.09;38.75;101848.97;5064536;28;20652;-60
2022/05/18 10:21:13;;;;;;;12.50;5.88;;;;;;;23.37;38.49;101846.41;5059266;28;20541;-59
2022/05/18 10:23:58;;;;;;;7.67;4.27;;;;;;;23.41;38.36;101840.59;5064307;28;20044;-58
2022/05/18 10:26:30;;;;;;;66.38;15.85;;;;;;;23.51;37.85;101840.59;5071219;28;20494;-60
2022/05/18 10:29:00;;;;;;;12.98;5.70;;;;;;;23.71;38.28;101844.09;5053663;28;20049;-59
2022/05/18 10:31:36;;;;;;;5.57;3.55;;;;;;;23.76;37.48;101841.81;5062368;28;20063;-61
2022/05/18 10:34:18;;;;;;;11.85;3.90;;;;;;;23.86;38.18;101836.41;5055233;28;20055;-61
2022/05/18 10:36:59;;;;;;;9.77;3.28;;;;;;;24.03;38.15;101829.38;5061365;28;20052;-60
2022/05/18 10:39:40;;;;;;;8.18;5.00;;;;;;;23.88;39.05;101829.03;5055538;28;20416;-62
2022/05/18 10:42:29;;;;;;;14.02;5.05;;;;;;;23.70;39.02;101832.50;5057483;28;20044;-59
2022/05/18 10:45:00;;;;;;;6.50;3.80;;;;;;;23.90;38.40;101838.63;5061154;28;20033;-61
2022/05/18 10:47:33;;;;;;;5.65;3.92;;;;;;;23.72;38.63;101830.50;5053306;28;20052;-59
2022/05/18 10:50:36;;;;;;;8.68;4.03;;;;;;;23.74;38.76;101836.59;5056884;28;20045;-63
2022/05/18 10:53:15;;;;;;;5.80;3.70;;;;;;;24.14;38.67;101838.13;5048342;28;20059;-54
2022/05/18 10:55:57;;;;;;;8.90;4.28;;;;;;;24.40;37.18;101826.66;5056954;28;20044;-56
2022/05/18 10:58:38;;;;;;;7.20;3.83;;;;;;;24.66;37.00;101837.53;5061555;28;20044;-55
2022/05/18 11:01:14;;;;;;;4.63;4.18;;;;;;;24.67;36.73;101825.75;5056411;28;20053;-58
2022/05/18 11:03:54;;;;;;;9.98;4.50;;;;;;;24.63;37.47;101825.25;5052943;28;21224;-57
2022/05/18 11:06:28;;;;;;;6.13;4.00;;;;;;;24.87;36.30;101826.47;5056455;28;20063;-56
2022/05/18 11:09:00;;;;;;;5.97;3.53;;;;;;;24.91;35.71;101820.63;5056643;28;20380;-58
2022/05/18 11:11:45;;;;;;;18.38;4.50;;;;;;;25.19;35.49;101821.38;5054453;28;20055;-55
2022/05/18 11:14:58;;;;;;;6.82;4.03;;;;;;;25.40;34.32;101823.72;5071787;28;20052;-56
2022/05/18 11:18:05;;;;;;;6.93;3.13;;;;;;;25.58;34.30;101814.72;5044177;28;20061;-57
2022/05/18 11:20:44;;;;;;;4.93;3.92;;;;;;;25.82;34.07;101809.50;5041173;28;20059;-54
2022/05/18 11:23:20;;;;;;;4.43;3.42;;;;;;;25.89;33.33;101804.28;5045566;28;20074;-52
2022/05/18 11:25:48;;;;;;;9.95;3.42;;;;;;;26.08;32.88;101787.84;5045433;28;20045;-55
2022/05/18 11:28:47;;;;;;;9.30;3.90;;;;;;;26.22;31.73;101808.81;5046410;28;20555;-54
2022/05/18 11:31:32;;;;;;;9.18;3.35;;;;;;;26.21;31.53;101790.94;5039856;28;20148;-54
2022/05/18 11:34:21;;;;;;;6.68;3.10;;;;;;;26.44;32.41;101788.47;5066944;28;20781;-57
2022/05/18 11:37:13;;;;;;;11.68;3.75;;;;;;;26.35;31.81;101781.34;5048710;28;20078;-56
2022/05/18 11:40:19;;;;;;;5.45;3.08;;;;;;;26.26;31.45;101782.34;5057909;28;20045;-53
2022/05/18 11:43:25;;;;;;;6.10;3.40;;;;;;;26.07;31.53;101786.13;5046200;28;20044;-55
2022/05/18 11:46:15;;;;;;;12.68;4.13;;;;;;;25.88;32.48;101784.56;5041067;28;22156;-52
2022/05/18 11:49:13;;;;;;;8.60;3.55;;;;;;;25.90;32.36;101782.56;5042105;28;20060;-56
2022/05/18 11:51:50;;;;;;;8.73;3.05;;;;;;;26.15;32.92;101774.53;5061477;28;20109;-56
2022/05/18 11:54:46;;;;;;;5.70;3.30;;;;;;;26.31;32.37;101779.97;5054195;28;20774;-51
2022/05/18 11:57:18;;;;;;;5.38;3.28;;;;;;;26.47;31.65;101768.38;5042592;28;20044;-53
2022/05/18 12:00:08;;;;;;;9.10;3.45;;;;;;;26.63;32.85;101771.13;5043421;28;20061;-55
2022/05/18 12:03:00;;;;;;;4.78;3.10;;;;;;;26.73;32.28;101771.78;5040805;28;20048;-54
2022/05/18 12:05:46;;;;;;;10.10;3.50;;;;;;;26.91;32.22;101768.06;5041668;28;20041;-52